<?xml version='1.0' encoding='UTF-8'?><gpx version="1.1" creator="JPX - https://github.com/jenetics/jpx" xmlns="http://www.topografix.com/GPX/1/1"><trk><trkseg><trkpt lat="41.1747858" lon="14.9638865"><ele>198.99999999999997</ele><time>2026-04-18T09:50:37.124Z</time></trkpt><trkpt lat="41.1748191" lon="14.9639613"><ele>199.0</ele><time>2026-04-18T09:50:45.124Z</time></trkpt><trkpt lat="41.1748634" lon="14.9640226"><ele>199.0</ele><time>2026-04-18T09:50:54.123Z</time></trkpt><trkpt lat="41.1749303" lon="14.9640491"><ele>199.0</ele><time>2026-04-18T09:51:01.124Z</time></trkpt><trkpt lat="41.174975" lon="14.964115"><ele>199.0</ele><time>2026-04-18T09:51:07.123Z</time></trkpt><trkpt lat="41.174922" lon="14.9641663"><ele>198.99999999999997</ele><time>2026-04-18T09:51:16.213Z</time></trkpt><trkpt lat="41.1748561" lon="14.9641651"><ele>199.0</ele><time>2026-04-18T09:51:22.369Z</time></trkpt><trkpt lat="41.1747886" lon="14.9642059"><ele>198.99999999999997</ele><time>2026-04-18T09:51:28.872Z</time></trkpt><trkpt lat="41.1747236" lon="14.9641646"><ele>199.0</ele><time>2026-04-18T09:51:35.124Z</time></trkpt><trkpt lat="41.1746634" lon="14.9642047"><ele>199.0</ele><time>2026-04-18T09:51:41.124Z</time></trkpt><trkpt lat="41.1745981" lon="14.9642373"><ele>199.0</ele><time>2026-04-18T09:51:47.124Z</time></trkpt><trkpt lat="41.174542" lon="14.964304"><ele>199.0</ele><time>2026-04-18T09:51:53.124Z</time></trkpt><trkpt lat="41.1744781" lon="14.9643498"><ele>198.99999999999997</ele><time>2026-04-18T09:51:59.124Z</time></trkpt><trkpt lat="41.1744459" lon="14.9644415"><ele>199.0</ele><time>2026-04-18T09:52:05.125Z</time></trkpt><trkpt lat="41.1744198" lon="14.9645346"><ele>200.85714285714283</ele><time>2026-04-18T09:52:11.057Z</time></trkpt><trkpt lat="41.1744152" lon="14.9646204"><ele>202.71428571428572</ele><time>2026-04-18T09:52:16.123Z</time></trkpt><trkpt lat="41.1743968" lon="14.9647067"><ele>204.57142857142856</ele><time>2026-04-18T09:52:22.096Z</time></trkpt><trkpt lat="41.1743684" lon="14.9647937"><ele>206.42857142857142</ele><time>2026-04-18T09:52:28.123Z</time></trkpt><trkpt lat="41.1743114" lon="14.9648441"><ele>208.28571428571428</ele><time>2026-04-18T09:52:34.123Z</time></trkpt><trkpt lat="41.1742446" lon="14.9648365"><ele>210.14285714285714</ele><time>2026-04-18T09:52:39.214Z</time></trkpt><trkpt lat="41.174172" lon="14.9648347"><ele>212.0</ele><time>2026-04-18T09:52:47.125Z</time></trkpt><trkpt lat="41.1741081" lon="14.964875"><ele>212.0</ele><time>2026-04-18T09:52:55.124Z</time></trkpt><trkpt lat="41.1741076" lon="14.9649613"><ele>212.0</ele><time>2026-04-18T09:52:59.123Z</time></trkpt><trkpt lat="41.1741597" lon="14.9650193"><ele>212.0</ele><time>2026-04-18T09:53:04.167Z</time></trkpt><trkpt lat="41.1742197" lon="14.9650628"><ele>212.0</ele><time>2026-04-18T09:53:09.125Z</time></trkpt><trkpt lat="41.1742707" lon="14.9651292"><ele>212.0</ele><time>2026-04-18T09:53:15.124Z</time></trkpt><trkpt lat="41.1743" lon="14.9652133"><ele>212.0</ele><time>2026-04-18T09:53:21.124Z</time></trkpt><trkpt lat="41.1742555" lon="14.9652982"><ele>212.0</ele><time>2026-04-18T09:53:26.125Z</time></trkpt><trkpt lat="41.1742148" lon="14.9653721"><ele>213.71428571428572</ele><time>2026-04-18T09:53:31.217Z</time></trkpt><trkpt lat="41.1741934" lon="14.9654599"><ele>215.42857142857142</ele><time>2026-04-18T09:53:37.124Z</time></trkpt><trkpt lat="41.1741993" lon="14.965546"><ele>217.14285714285714</ele><time>2026-04-18T09:53:44.124Z</time></trkpt><trkpt lat="41.1742144" lon="14.9656356"><ele>218.85714285714286</ele><time>2026-04-18T09:53:51.124Z</time></trkpt><trkpt lat="41.174238" lon="14.9657189"><ele>220.57142857142856</ele><time>2026-04-18T09:53:58.125Z</time></trkpt><trkpt lat="41.1742689" lon="14.9657948"><ele>222.28571428571428</ele><time>2026-04-18T09:54:04.054Z</time></trkpt><trkpt lat="41.1742864" lon="14.9658809"><ele>224.0</ele><time>2026-04-18T09:54:11.114Z</time></trkpt><trkpt lat="41.174284" lon="14.9659749"><ele>225.85714285714286</ele><time>2026-04-18T09:54:18.125Z</time></trkpt><trkpt lat="41.1742953" lon="14.9660605"><ele>227.71428571428572</ele><time>2026-04-18T09:54:26.052Z</time></trkpt><trkpt lat="41.1742749" lon="14.9661548"><ele>229.57142857142856</ele><time>2026-04-18T09:54:33.123Z</time></trkpt><trkpt lat="41.1743434" lon="14.9661552"><ele>231.42857142857142</ele><time>2026-04-18T09:54:42.124Z</time></trkpt><trkpt lat="41.1744041" lon="14.9661204"><ele>233.28571428571428</ele><time>2026-04-18T09:54:49.124Z</time></trkpt><trkpt lat="41.1744665" lon="14.9660958"><ele>235.1428571428571</ele><time>2026-04-18T09:54:56.124Z</time></trkpt><trkpt lat="41.1745343" lon="14.9660847"><ele>236.99999999999997</ele><time>2026-04-18T09:55:04.123Z</time></trkpt><trkpt lat="41.1745999" lon="14.9660695"><ele>236.99999999999997</ele><time>2026-04-18T09:55:13.157Z</time></trkpt><trkpt lat="41.1746451" lon="14.966131"><ele>237.0</ele><time>2026-04-18T09:55:20.123Z</time></trkpt><trkpt lat="41.1746291" lon="14.9662129"><ele>236.99999999999997</ele><time>2026-04-18T09:55:25.075Z</time></trkpt><trkpt lat="41.1746082" lon="14.9663047"><ele>236.99999999999997</ele><time>2026-04-18T09:55:31.124Z</time></trkpt><trkpt lat="41.1745667" lon="14.966383"><ele>237.0</ele><time>2026-04-18T09:55:38.125Z</time></trkpt><trkpt lat="41.1745439" lon="14.9664723"><ele>236.99999999999997</ele><time>2026-04-18T09:55:46.124Z</time></trkpt><trkpt lat="41.1745503" lon="14.9665589"><ele>236.99999999999997</ele><time>2026-04-18T09:55:53.124Z</time></trkpt><trkpt lat="41.1745987" lon="14.9666254"><ele>238.71428571428567</ele><time>2026-04-18T09:56:01.125Z</time></trkpt><trkpt lat="41.1746348" lon="14.9667083"><ele>240.42857142857142</ele><time>2026-04-18T09:58:01.124Z</time></trkpt><trkpt lat="41.1746755" lon="14.9667836"><ele>242.1428571428571</ele><time>2026-04-18T09:58:27.124Z</time></trkpt><trkpt lat="41.1747109" lon="14.9668601"><ele>243.85714285714283</ele><time>2026-04-18T09:58:34.125Z</time></trkpt><trkpt lat="41.1747245" lon="14.9669485"><ele>245.57142857142856</ele><time>2026-04-18T09:58:43.074Z</time></trkpt><trkpt lat="41.174775" lon="14.9670055"><ele>247.28571428571428</ele><time>2026-04-18T09:58:53.124Z</time></trkpt><trkpt lat="41.1748459" lon="14.9670131"><ele>249.0</ele><time>2026-04-18T09:58:59.957Z</time></trkpt><trkpt lat="41.1749147" lon="14.9670319"><ele>249.14285714285714</ele><time>2026-04-18T09:59:07.124Z</time></trkpt><trkpt lat="41.1749684" lon="14.9669834"><ele>249.28571428571428</ele><time>2026-04-18T09:59:14.123Z</time></trkpt><trkpt lat="41.1750051" lon="14.9669016"><ele>249.42857142857142</ele><time>2026-04-18T09:59:20.118Z</time></trkpt><trkpt lat="41.1750213" lon="14.9668015"><ele>249.57142857142856</ele><time>2026-04-18T09:59:25.124Z</time></trkpt><trkpt lat="41.1749704" lon="14.9667469"><ele>249.71428571428572</ele><time>2026-04-18T09:59:30.123Z</time></trkpt><trkpt lat="41.1749554" lon="14.9666581"><ele>249.85714285714283</ele><time>2026-04-18T09:59:36.125Z</time></trkpt><trkpt lat="41.1749142" lon="14.9665841"><ele>250.0</ele><time>2026-04-18T09:59:43.123Z</time></trkpt><trkpt lat="41.1748887" lon="14.9665016"><ele>250.0</ele><time>2026-04-18T09:59:49.124Z</time></trkpt><trkpt lat="41.174906" lon="14.9664079"><ele>250.0</ele><time>2026-04-18T09:59:56.124Z</time></trkpt><trkpt lat="41.1749647" lon="14.9663712"><ele>250.0</ele><time>2026-04-18T10:00:03.125Z</time></trkpt><trkpt lat="41.175029" lon="14.9663574"><ele>250.0</ele><time>2026-04-18T10:00:09.125Z</time></trkpt><trkpt lat="41.1750453" lon="14.9664464"><ele>250.0</ele><time>2026-04-18T10:00:51.094Z</time></trkpt><trkpt lat="41.1750635" lon="14.966536"><ele>250.0</ele><time>2026-04-18T10:00:56.123Z</time></trkpt><trkpt lat="41.1750834" lon="14.9666251"><ele>250.0</ele><time>2026-04-18T10:01:04.036Z</time></trkpt><trkpt lat="41.1751459" lon="14.9666653"><ele>250.0</ele><time>2026-04-18T10:01:15.155Z</time></trkpt><trkpt lat="41.1751915" lon="14.9666045"><ele>250.0</ele><time>2026-04-18T10:01:21.125Z</time></trkpt><trkpt lat="41.175207" lon="14.96652"><ele>250.0</ele><time>2026-04-18T10:01:26.123Z</time></trkpt><trkpt lat="41.1752592" lon="14.9664567"><ele>250.0</ele><time>2026-04-18T10:01:31.124Z</time></trkpt><trkpt lat="41.1752921" lon="14.9663816"><ele>250.0</ele><time>2026-04-18T10:01:36.076Z</time></trkpt><trkpt lat="41.1753291" lon="14.9663057"><ele>250.0</ele><time>2026-04-18T10:01:40.074Z</time></trkpt><trkpt lat="41.17536" lon="14.9662207"><ele>250.0</ele><time>2026-04-18T10:01:46.124Z</time></trkpt><trkpt lat="41.1753983" lon="14.9661459"><ele>250.0</ele><time>2026-04-18T10:01:51.128Z</time></trkpt><trkpt lat="41.175448" lon="14.9660756"><ele>250.0</ele><time>2026-04-18T10:01:57.123Z</time></trkpt><trkpt lat="41.1754915" lon="14.9659996"><ele>250.0</ele><time>2026-04-18T10:02:03.029Z</time></trkpt><trkpt lat="41.1754955" lon="14.9659028"><ele>250.0</ele><time>2026-04-18T10:02:09.124Z</time></trkpt><trkpt lat="41.1754753" lon="14.9658163"><ele>250.0</ele><time>2026-04-18T10:02:14.123Z</time></trkpt><trkpt lat="41.1754615" lon="14.9657315"><ele>250.0</ele><time>2026-04-18T10:02:19.124Z</time></trkpt><trkpt lat="41.1754539" lon="14.9656353"><ele>250.0</ele><time>2026-04-18T10:02:24.124Z</time></trkpt><trkpt lat="41.1754532" lon="14.965545"><ele>247.28571428571428</ele><time>2026-04-18T10:02:29.125Z</time></trkpt><trkpt lat="41.1754604" lon="14.9654553"><ele>244.57142857142858</ele><time>2026-04-18T10:02:34.113Z</time></trkpt><trkpt lat="41.1754388" lon="14.9653695"><ele>241.85714285714286</ele><time>2026-04-18T10:02:39.096Z</time></trkpt><trkpt lat="41.1754069" lon="14.9652968"><ele>239.14285714285714</ele><time>2026-04-18T10:02:44.125Z</time></trkpt><trkpt lat="41.1753567" lon="14.9652341"><ele>236.42857142857144</ele><time>2026-04-18T10:02:50.123Z</time></trkpt><trkpt lat="41.1753272" lon="14.9651507"><ele>233.71428571428572</ele><time>2026-04-18T10:02:55.124Z</time></trkpt><trkpt lat="41.1753274" lon="14.9650587"><ele>231.0</ele><time>2026-04-18T10:03:01.124Z</time></trkpt><trkpt lat="41.1753148" lon="14.964974"><ele>229.28571428571428</ele><time>2026-04-18T10:03:52.124Z</time></trkpt><trkpt lat="41.1753404" lon="14.964887"><ele>227.57142857142856</ele><time>2026-04-18T10:04:08.124Z</time></trkpt><trkpt lat="41.1753919" lon="14.9648259"><ele>225.85714285714286</ele><time>2026-04-18T10:04:14.123Z</time></trkpt><trkpt lat="41.1754537" lon="14.9648079"><ele>224.14285714285714</ele><time>2026-04-18T10:04:19.254Z</time></trkpt><trkpt lat="41.1755195" lon="14.9647914"><ele>222.42857142857142</ele><time>2026-04-18T10:04:25.219Z</time></trkpt><trkpt lat="41.1755667" lon="14.9647179"><ele>220.71428571428572</ele><time>2026-04-18T10:04:31.124Z</time></trkpt><trkpt lat="41.1755791" lon="14.9646336"><ele>219.0</ele><time>2026-04-18T10:04:35.192Z</time></trkpt><trkpt lat="41.1756244" lon="14.9645709"><ele>219.0</ele><time>2026-04-18T10:04:41.211Z</time></trkpt><trkpt lat="41.1756818" lon="14.9645159"><ele>219.0</ele><time>2026-04-18T10:04:47.113Z</time></trkpt><trkpt lat="41.1756899" lon="14.9644167"><ele>219.0</ele><time>2026-04-18T10:04:53.124Z</time></trkpt><trkpt lat="41.1756444" lon="14.9643378"><ele>219.0</ele><time>2026-04-18T10:04:58.573Z</time></trkpt><trkpt lat="41.1755779" lon="14.9642854"><ele>219.0</ele><time>2026-04-18T10:05:03.654Z</time></trkpt><trkpt lat="41.1755189" lon="14.9642162"><ele>219.0</ele><time>2026-04-18T10:05:08.895Z</time></trkpt><trkpt lat="41.1755117" lon="14.964126"><ele>219.0</ele><time>2026-04-18T10:05:15.125Z</time></trkpt><trkpt lat="41.1754522" lon="14.9640689"><ele>217.14285714285714</ele><time>2026-04-18T10:05:21.124Z</time></trkpt><trkpt lat="41.1753869" lon="14.9640788"><ele>215.28571428571428</ele><time>2026-04-18T10:05:27.109Z</time></trkpt><trkpt lat="41.175327" lon="14.9640343"><ele>213.42857142857142</ele><time>2026-04-18T10:05:46.124Z</time></trkpt><trkpt lat="41.1752908" lon="14.963958"><ele>211.57142857142856</ele><time>2026-04-18T10:05:50.129Z</time></trkpt><trkpt lat="41.1752546" lon="14.9638694"><ele>209.71428571428572</ele><time>2026-04-18T10:05:56.136Z</time></trkpt><trkpt lat="41.175247" lon="14.9637851"><ele>207.85714285714283</ele><time>2026-04-18T10:06:02.125Z</time></trkpt><trkpt lat="41.1751906" lon="14.9637186"><ele>206.0</ele><time>2026-04-18T10:06:08.154Z</time></trkpt><trkpt lat="41.1751813" lon="14.9636252"><ele>205.99999999999997</ele><time>2026-04-18T10:06:20.123Z</time></trkpt><trkpt lat="41.1751516" lon="14.9635271"><ele>206.0</ele><time>2026-04-18T10:06:26.125Z</time></trkpt><trkpt lat="41.1751162" lon="14.9634506"><ele>206.0</ele><time>2026-04-18T10:06:32.124Z</time></trkpt><trkpt lat="41.1750779" lon="14.9633662"><ele>206.0</ele><time>2026-04-18T10:06:54.124Z</time></trkpt><trkpt lat="41.1750704" lon="14.9632724"><ele>206.0</ele><time>2026-04-18T10:06:59.123Z</time></trkpt><trkpt lat="41.1751201" lon="14.9631983"><ele>205.99999999999997</ele><time>2026-04-18T10:07:05.125Z</time></trkpt><trkpt lat="41.1751877" lon="14.9631643"><ele>206.0</ele><time>2026-04-18T10:07:11.123Z</time></trkpt><trkpt lat="41.1752454" lon="14.9631291"><ele>204.7142857142857</ele><time>2026-04-18T10:07:16.137Z</time></trkpt><trkpt lat="41.1753045" lon="14.9630912"><ele>203.42857142857142</ele><time>2026-04-18T10:07:21.123Z</time></trkpt><trkpt lat="41.175367" lon="14.9631231"><ele>202.14285714285714</ele><time>2026-04-18T10:07:27.139Z</time></trkpt><trkpt lat="41.1754225" lon="14.9631706"><ele>200.85714285714283</ele><time>2026-04-18T10:07:32.123Z</time></trkpt><trkpt lat="41.1754837" lon="14.9632161"><ele>199.57142857142858</ele><time>2026-04-18T10:07:37.125Z</time></trkpt><trkpt lat="41.175548" lon="14.9632367"><ele>198.28571428571428</ele><time>2026-04-18T10:07:42.123Z</time></trkpt><trkpt lat="41.1756133" lon="14.9632294"><ele>197.0</ele><time>2026-04-18T10:07:47.123Z</time></trkpt><trkpt lat="41.1756794" lon="14.9632262"><ele>197.42857142857144</ele><time>2026-04-18T10:07:52.124Z</time></trkpt><trkpt lat="41.1757446" lon="14.9632073"><ele>197.85714285714286</ele><time>2026-04-18T10:07:57.124Z</time></trkpt><trkpt lat="41.1758114" lon="14.9632513"><ele>198.28571428571428</ele><time>2026-04-18T10:08:03.073Z</time></trkpt><trkpt lat="41.1758698" lon="14.9632921"><ele>198.71428571428572</ele><time>2026-04-18T10:08:08.124Z</time></trkpt><trkpt lat="41.1759277" lon="14.9632454"><ele>199.14285714285714</ele><time>2026-04-18T10:08:13.124Z</time></trkpt><trkpt lat="41.1760032" lon="14.9632515"><ele>199.57142857142858</ele><time>2026-04-18T10:08:20.123Z</time></trkpt><trkpt lat="41.1760729" lon="14.9632572"><ele>200.0</ele><time>2026-04-18T10:08:25.053Z</time></trkpt><trkpt lat="41.1761363" lon="14.9632397"><ele>200.00000000000003</ele><time>2026-04-18T10:08:32.123Z</time></trkpt><trkpt lat="41.1762005" lon="14.9632797"><ele>200.0</ele><time>2026-04-18T10:08:42.124Z</time></trkpt><trkpt lat="41.1762609" lon="14.9632558"><ele>200.0</ele><time>2026-04-18T10:08:49.123Z</time></trkpt><trkpt lat="41.176324" lon="14.9632668"><ele>200.0</ele><time>2026-04-18T10:08:55.124Z</time></trkpt><trkpt lat="41.1763823" lon="14.9633155"><ele>200.0</ele><time>2026-04-18T10:09:02.124Z</time></trkpt><trkpt lat="41.176445" lon="14.9633529"><ele>200.00000000000003</ele><time>2026-04-18T10:09:08.124Z</time></trkpt><trkpt lat="41.1765098" lon="14.9633868"><ele>200.0</ele><time>2026-04-18T10:09:14.123Z</time></trkpt><trkpt lat="41.1765793" lon="14.9634256"><ele>201.14285714285717</ele><time>2026-04-18T10:09:20.134Z</time></trkpt><trkpt lat="41.1766464" lon="14.9634475"><ele>202.28571428571428</ele><time>2026-04-18T10:09:25.123Z</time></trkpt><trkpt lat="41.1767114" lon="14.9634714"><ele>203.42857142857144</ele><time>2026-04-18T10:09:30.037Z</time></trkpt><trkpt lat="41.1767716" lon="14.9635116"><ele>204.57142857142858</ele><time>2026-04-18T10:09:36.124Z</time></trkpt><trkpt lat="41.1768457" lon="14.9635437"><ele>205.71428571428572</ele><time>2026-04-18T10:09:42.125Z</time></trkpt><trkpt lat="41.1768989" lon="14.9635948"><ele>206.85714285714286</ele><time>2026-04-18T10:09:47.124Z</time></trkpt><trkpt lat="41.1769554" lon="14.9636432"><ele>208.0</ele><time>2026-04-18T10:09:52.124Z</time></trkpt><trkpt lat="41.1770182" lon="14.9636689"><ele>208.0</ele><time>2026-04-18T10:09:57.123Z</time></trkpt><trkpt lat="41.1770828" lon="14.9637084"><ele>208.0</ele><time>2026-04-18T10:10:02.124Z</time></trkpt><trkpt lat="41.1771377" lon="14.9637626"><ele>208.0</ele><time>2026-04-18T10:10:07.109Z</time></trkpt><trkpt lat="41.1771056" lon="14.9638493"><ele>208.0</ele><time>2026-04-18T10:10:18.124Z</time></trkpt><trkpt lat="41.177181" lon="14.9638181"><ele>208.0</ele><time>2026-04-18T10:10:39.124Z</time></trkpt><trkpt lat="41.1772438" lon="14.9638356"><ele>208.0</ele><time>2026-04-18T10:10:43.124Z</time></trkpt><trkpt lat="41.1773075" lon="14.9638532"><ele>208.0</ele><time>2026-04-18T10:10:48.123Z</time></trkpt><trkpt lat="41.1773736" lon="14.9638736"><ele>207.28571428571428</ele><time>2026-04-18T10:10:53.124Z</time></trkpt><trkpt lat="41.1774361" lon="14.9639153"><ele>206.57142857142858</ele><time>2026-04-18T10:10:58.123Z</time></trkpt><trkpt lat="41.177504" lon="14.9639116"><ele>205.85714285714286</ele><time>2026-04-18T10:11:03.125Z</time></trkpt><trkpt lat="41.1775588" lon="14.9639584"><ele>205.14285714285714</ele><time>2026-04-18T10:11:08.123Z</time></trkpt><trkpt lat="41.1776095" lon="14.96402"><ele>204.42857142857144</ele><time>2026-04-18T10:11:13.11Z</time></trkpt><trkpt lat="41.1776323" lon="14.9641135"><ele>203.71428571428572</ele><time>2026-04-18T10:11:18.008Z</time></trkpt><trkpt lat="41.1776623" lon="14.9641937"><ele>203.0</ele><time>2026-04-18T10:11:24.123Z</time></trkpt><trkpt lat="41.1777268" lon="14.9642144"><ele>204.71428571428572</ele><time>2026-04-18T10:11:29.117Z</time></trkpt><trkpt lat="41.1777759" lon="14.964276"><ele>206.42857142857144</ele><time>2026-04-18T10:11:34.124Z</time></trkpt><trkpt lat="41.1778185" lon="14.9643437"><ele>208.14285714285714</ele><time>2026-04-18T10:11:39.124Z</time></trkpt><trkpt lat="41.1778601" lon="14.9644316"><ele>209.85714285714286</ele><time>2026-04-18T10:11:45.124Z</time></trkpt><trkpt lat="41.1779078" lon="14.9645046"><ele>211.57142857142858</ele><time>2026-04-18T10:11:51.123Z</time></trkpt><trkpt lat="41.1779109" lon="14.9645896"><ele>213.28571428571428</ele><time>2026-04-18T10:12:02.124Z</time></trkpt><trkpt lat="41.1779626" lon="14.96464"><ele>215.0</ele><time>2026-04-18T10:12:12.124Z</time></trkpt><trkpt lat="41.1780345" lon="14.9646804"><ele>215.0</ele><time>2026-04-18T10:12:16.125Z</time></trkpt><trkpt lat="41.1780988" lon="14.9647244"><ele>215.0</ele><time>2026-04-18T10:12:21.03Z</time></trkpt><trkpt lat="41.1781626" lon="14.9647553"><ele>215.0</ele><time>2026-04-18T10:12:26.124Z</time></trkpt><trkpt lat="41.1782224" lon="14.9648112"><ele>215.0</ele><time>2026-04-18T10:12:32.117Z</time></trkpt><trkpt lat="41.1782724" lon="14.9648669"><ele>215.0</ele><time>2026-04-18T10:12:37.124Z</time></trkpt><trkpt lat="41.178323" lon="14.9649195"><ele>215.0</ele><time>2026-04-18T10:12:42.09Z</time></trkpt><trkpt lat="41.178395" lon="14.9649444"><ele>215.0</ele><time>2026-04-18T10:12:48.155Z</time></trkpt><trkpt lat="41.1784608" lon="14.9649574"><ele>215.28571428571428</ele><time>2026-04-18T10:12:54.123Z</time></trkpt><trkpt lat="41.1785338" lon="14.9649814"><ele>215.57142857142858</ele><time>2026-04-18T10:13:00.048Z</time></trkpt><trkpt lat="41.1785953" lon="14.9650162"><ele>215.85714285714286</ele><time>2026-04-18T10:13:05.123Z</time></trkpt><trkpt lat="41.1786523" lon="14.9650655"><ele>216.14285714285714</ele><time>2026-04-18T10:13:10.124Z</time></trkpt><trkpt lat="41.1786997" lon="14.9651394"><ele>216.42857142857144</ele><time>2026-04-18T10:13:16.123Z</time></trkpt><trkpt lat="41.1786929" lon="14.9652349"><ele>216.71428571428572</ele><time>2026-04-18T10:13:21.123Z</time></trkpt><trkpt lat="41.1786787" lon="14.965327"><ele>217.0</ele><time>2026-04-18T10:13:26.075Z</time></trkpt><trkpt lat="41.1786617" lon="14.9654083"><ele>217.0</ele><time>2026-04-18T10:13:31.124Z</time></trkpt><trkpt lat="41.1786509" lon="14.9654915"><ele>217.0</ele><time>2026-04-18T10:13:37.123Z</time></trkpt><trkpt lat="41.1785849" lon="14.9654656"><ele>217.0</ele><time>2026-04-18T10:13:43.123Z</time></trkpt><trkpt lat="41.1785416" lon="14.9653956"><ele>217.0</ele><time>2026-04-18T10:13:48.124Z</time></trkpt><trkpt lat="41.1785028" lon="14.9653246"><ele>217.0</ele><time>2026-04-18T10:13:53.123Z</time></trkpt><trkpt lat="41.1784532" lon="14.965271"><ele>217.0</ele><time>2026-04-18T10:13:58.125Z</time></trkpt><trkpt lat="41.1783921" lon="14.9652181"><ele>217.0</ele><time>2026-04-18T10:14:04.062Z</time></trkpt><trkpt lat="41.1783373" lon="14.9651744"><ele>217.0</ele><time>2026-04-18T10:14:09.125Z</time></trkpt><trkpt lat="41.178269" lon="14.9651367"><ele>217.0</ele><time>2026-04-18T10:14:33.124Z</time></trkpt><trkpt lat="41.1782137" lon="14.9650759"><ele>217.0</ele><time>2026-04-18T10:14:38.123Z</time></trkpt><trkpt lat="41.1781614" lon="14.9650208"><ele>217.0</ele><time>2026-04-18T10:14:43.123Z</time></trkpt><trkpt lat="41.1781116" lon="14.9649643"><ele>217.0</ele><time>2026-04-18T10:14:48.124Z</time></trkpt><trkpt lat="41.1780525" lon="14.9649028"><ele>217.0</ele><time>2026-04-18T10:14:53.792Z</time></trkpt><trkpt lat="41.178005" lon="14.9648479"><ele>217.0</ele><time>2026-04-18T10:14:59.05Z</time></trkpt><trkpt lat="41.1779492" lon="14.964788"><ele>216.71428571428572</ele><time>2026-04-18T10:15:05.123Z</time></trkpt><trkpt lat="41.1778924" lon="14.9647297"><ele>216.42857142857144</ele><time>2026-04-18T10:15:11.116Z</time></trkpt><trkpt lat="41.1778427" lon="14.9646603"><ele>216.14285714285714</ele><time>2026-04-18T10:15:18.124Z</time></trkpt><trkpt lat="41.1777932" lon="14.9645999"><ele>215.85714285714286</ele><time>2026-04-18T10:15:33.123Z</time></trkpt><trkpt lat="41.1777523" lon="14.9645307"><ele>215.57142857142858</ele><time>2026-04-18T10:16:15.076Z</time></trkpt><trkpt lat="41.1777004" lon="14.9644498"><ele>215.28571428571428</ele><time>2026-04-18T10:16:20.125Z</time></trkpt><trkpt lat="41.177648" lon="14.9643634"><ele>215.0</ele><time>2026-04-18T10:16:34.123Z</time></trkpt><trkpt lat="41.1776101" lon="14.964288"><ele>215.0</ele><time>2026-04-18T10:16:38.124Z</time></trkpt><trkpt lat="41.1775563" lon="14.9642373"><ele>215.0</ele><time>2026-04-18T10:16:42.124Z</time></trkpt><trkpt lat="41.1774862" lon="14.9642045"><ele>215.0</ele><time>2026-04-18T10:16:47.155Z</time></trkpt><trkpt lat="41.1774378" lon="14.9641498"><ele>215.0</ele><time>2026-04-18T10:16:52.123Z</time></trkpt><trkpt lat="41.1773851" lon="14.9640935"><ele>215.0</ele><time>2026-04-18T10:16:57.124Z</time></trkpt><trkpt lat="41.1773298" lon="14.9640369"><ele>215.0</ele><time>2026-04-18T10:17:02.124Z</time></trkpt><trkpt lat="41.1772713" lon="14.9639821"><ele>215.0</ele><time>2026-04-18T10:17:07.124Z</time></trkpt><trkpt lat="41.1772201" lon="14.9639244"><ele>214.0</ele><time>2026-04-18T10:17:12.082Z</time></trkpt><trkpt lat="41.1771608" lon="14.9638729"><ele>213.0</ele><time>2026-04-18T10:17:18.024Z</time></trkpt><trkpt lat="41.1770987" lon="14.963845"><ele>212.0</ele><time>2026-04-18T10:17:23.124Z</time></trkpt><trkpt lat="41.1770385" lon="14.9638142"><ele>211.0</ele><time>2026-04-18T10:17:28.125Z</time></trkpt><trkpt lat="41.1769769" lon="14.9637833"><ele>210.0</ele><time>2026-04-18T10:17:33.123Z</time></trkpt><trkpt lat="41.1769112" lon="14.9637639"><ele>209.0</ele><time>2026-04-18T10:17:38.055Z</time></trkpt><trkpt lat="41.1768502" lon="14.9637378"><ele>208.0</ele><time>2026-04-18T10:17:43.123Z</time></trkpt><trkpt lat="41.1767809" lon="14.9637249"><ele>208.0</ele><time>2026-04-18T10:17:49.095Z</time></trkpt><trkpt lat="41.1767144" lon="14.9637298"><ele>208.0</ele><time>2026-04-18T10:18:08.051Z</time></trkpt><trkpt lat="41.1766483" lon="14.9637119"><ele>208.0</ele><time>2026-04-18T10:18:12.123Z</time></trkpt><trkpt lat="41.1765785" lon="14.963714"><ele>208.0</ele><time>2026-04-18T10:18:17.124Z</time></trkpt><trkpt lat="41.1765113" lon="14.9637472"><ele>208.0</ele><time>2026-04-18T10:18:23.117Z</time></trkpt><trkpt lat="41.1764378" lon="14.9637582"><ele>208.0</ele><time>2026-04-18T10:18:29.124Z</time></trkpt><trkpt lat="41.1763671" lon="14.9637644"><ele>208.0</ele><time>2026-04-18T10:18:35.036Z</time></trkpt><trkpt lat="41.1763034" lon="14.9637415"><ele>208.42857142857142</ele><time>2026-04-18T10:18:40.123Z</time></trkpt><trkpt lat="41.1762307" lon="14.9637344"><ele>208.85714285714286</ele><time>2026-04-18T10:18:45.096Z</time></trkpt><trkpt lat="41.1761815" lon="14.9637968"><ele>209.28571428571428</ele><time>2026-04-18T10:18:51.124Z</time></trkpt><trkpt lat="41.1761891" lon="14.9638848"><ele>209.71428571428572</ele><time>2026-04-18T10:19:01.123Z</time></trkpt><trkpt lat="41.1762125" lon="14.9639663"><ele>210.14285714285717</ele><time>2026-04-18T10:19:07.124Z</time></trkpt><trkpt lat="41.1761996" lon="14.9640565"><ele>210.57142857142858</ele><time>2026-04-18T10:19:15.123Z</time></trkpt><trkpt lat="41.1761619" lon="14.9641338"><ele>211.0</ele><time>2026-04-18T10:19:21.125Z</time></trkpt><trkpt lat="41.1761109" lon="14.9641985"><ele>212.71428571428572</ele><time>2026-04-18T10:19:27.125Z</time></trkpt><trkpt lat="41.1761432" lon="14.9642781"><ele>214.42857142857144</ele><time>2026-04-18T10:19:41.124Z</time></trkpt><trkpt lat="41.1762115" lon="14.964278"><ele>216.14285714285714</ele><time>2026-04-18T10:19:46.124Z</time></trkpt><trkpt lat="41.1762784" lon="14.9642521"><ele>217.85714285714286</ele><time>2026-04-18T10:19:51.123Z</time></trkpt><trkpt lat="41.1763405" lon="14.9642301"><ele>219.57142857142856</ele><time>2026-04-18T10:19:56.137Z</time></trkpt><trkpt lat="41.176408" lon="14.9642101"><ele>221.28571428571428</ele><time>2026-04-18T10:20:02.125Z</time></trkpt><trkpt lat="41.1764766" lon="14.9642217"><ele>223.0</ele><time>2026-04-18T10:20:08.123Z</time></trkpt><trkpt lat="41.1765447" lon="14.9642542"><ele>223.0</ele><time>2026-04-18T10:20:14.059Z</time></trkpt><trkpt lat="41.1765943" lon="14.9643082"><ele>223.0</ele><time>2026-04-18T10:20:19.124Z</time></trkpt><trkpt lat="41.176649" lon="14.9643658"><ele>223.0</ele><time>2026-04-18T10:20:25.125Z</time></trkpt><trkpt lat="41.1766823" lon="14.9644419"><ele>223.0</ele><time>2026-04-18T10:20:31.123Z</time></trkpt><trkpt lat="41.1767401" lon="14.964484"><ele>223.0</ele><time>2026-04-18T10:20:50.134Z</time></trkpt><trkpt lat="41.1767754" lon="14.9645542"><ele>223.0</ele><time>2026-04-18T10:20:56.223Z</time></trkpt><trkpt lat="41.1768333" lon="14.9645055"><ele>223.0</ele><time>2026-04-18T10:21:04.124Z</time></trkpt><trkpt lat="41.1768822" lon="14.964439"><ele>223.0</ele><time>2026-04-18T10:21:10.124Z</time></trkpt><trkpt lat="41.1769392" lon="14.9643874"><ele>223.0</ele><time>2026-04-18T10:21:21.124Z</time></trkpt><trkpt lat="41.1770049" lon="14.9644389"><ele>223.0</ele><time>2026-04-18T10:21:26.204Z</time></trkpt><trkpt lat="41.1770254" lon="14.9645251"><ele>223.0</ele><time>2026-04-18T10:21:31.123Z</time></trkpt><trkpt lat="41.1770572" lon="14.9646048"><ele>223.0</ele><time>2026-04-18T10:21:37.124Z</time></trkpt><trkpt lat="41.1771069" lon="14.9646789"><ele>223.0</ele><time>2026-04-18T10:21:43.029Z</time></trkpt><trkpt lat="41.177135" lon="14.9647553"><ele>223.0</ele><time>2026-04-18T10:21:49.124Z</time></trkpt><trkpt lat="41.1770965" lon="14.9648338"><ele>223.0</ele><time>2026-04-18T10:21:56.177Z</time></trkpt><trkpt lat="41.1770601" lon="14.9649041"><ele>223.0</ele><time>2026-04-18T10:22:02.218Z</time></trkpt><trkpt lat="41.1770421" lon="14.9649884"><ele>223.0</ele><time>2026-04-18T10:22:11.124Z</time></trkpt><trkpt lat="41.1771268" lon="14.9650716"><ele>223.0</ele><time>2026-04-18T10:22:40.124Z</time></trkpt><trkpt lat="41.1771898" lon="14.965111"><ele>223.0</ele><time>2026-04-18T10:22:44.124Z</time></trkpt><trkpt lat="41.1772494" lon="14.9651506"><ele>223.0</ele><time>2026-04-18T10:22:50.124Z</time></trkpt><trkpt lat="41.1772981" lon="14.9652201"><ele>223.0</ele><time>2026-04-18T10:22:56.125Z</time></trkpt><trkpt lat="41.1773349" lon="14.9652928"><ele>224.14285714285714</ele><time>2026-04-18T10:23:02.135Z</time></trkpt><trkpt lat="41.1773826" lon="14.9653533"><ele>225.28571428571428</ele><time>2026-04-18T10:23:08.181Z</time></trkpt><trkpt lat="41.1774295" lon="14.9654175"><ele>226.42857142857144</ele><time>2026-04-18T10:23:16.123Z</time></trkpt><trkpt lat="41.177483" lon="14.9654654"><ele>227.57142857142856</ele><time>2026-04-18T10:23:23.124Z</time></trkpt><trkpt lat="41.1775525" lon="14.9654696"><ele>228.71428571428572</ele><time>2026-04-18T10:23:29.123Z</time></trkpt><trkpt lat="41.1776169" lon="14.9654988"><ele>229.85714285714286</ele><time>2026-04-18T10:23:34.056Z</time></trkpt><trkpt lat="41.1776727" lon="14.9655446"><ele>231.0</ele><time>2026-04-18T10:23:39.123Z</time></trkpt><trkpt lat="41.1777291" lon="14.9655888"><ele>231.0</ele><time>2026-04-18T10:23:44.124Z</time></trkpt><trkpt lat="41.1777929" lon="14.9656293"><ele>231.0</ele><time>2026-04-18T10:23:50.123Z</time></trkpt><trkpt lat="41.1778622" lon="14.9656719"><ele>231.0</ele><time>2026-04-18T10:23:56.056Z</time></trkpt><trkpt lat="41.1779158" lon="14.965726"><ele>231.0</ele><time>2026-04-18T10:24:02.124Z</time></trkpt><trkpt lat="41.1779632" lon="14.9657999"><ele>231.0</ele><time>2026-04-18T10:24:08.123Z</time></trkpt><trkpt lat="41.1780057" lon="14.9658669"><ele>231.0</ele><time>2026-04-18T10:24:14.124Z</time></trkpt><trkpt lat="41.1780555" lon="14.9659285"><ele>231.0</ele><time>2026-04-18T10:24:20.096Z</time></trkpt><trkpt lat="41.17811" lon="14.9659817"><ele>230.14285714285714</ele><time>2026-04-18T10:24:26.07Z</time></trkpt><trkpt lat="41.178172" lon="14.9660349"><ele>229.28571428571428</ele><time>2026-04-18T10:24:32.125Z</time></trkpt><trkpt lat="41.1782068" lon="14.9661083"><ele>228.42857142857144</ele><time>2026-04-18T10:24:37.125Z</time></trkpt><trkpt lat="41.1782175" lon="14.9662074"><ele>227.57142857142858</ele><time>2026-04-18T10:24:43.131Z</time></trkpt><trkpt lat="41.1782407" lon="14.9662956"><ele>226.71428571428572</ele><time>2026-04-18T10:24:49.125Z</time></trkpt><trkpt lat="41.178261" lon="14.9663872"><ele>225.8571428571429</ele><time>2026-04-18T10:24:55.125Z</time></trkpt><trkpt lat="41.1782617" lon="14.9664913"><ele>225.00000000000003</ele><time>2026-04-18T10:25:01.124Z</time></trkpt><trkpt lat="41.1782744" lon="14.966584"><ele>225.00000000000003</ele><time>2026-04-18T10:25:07.124Z</time></trkpt><trkpt lat="41.1783456" lon="14.9666026"><ele>225.0</ele><time>2026-04-18T10:25:12.124Z</time></trkpt><trkpt lat="41.178403" lon="14.966647"><ele>225.00000000000003</ele><time>2026-04-18T10:25:17.123Z</time></trkpt><trkpt lat="41.1784706" lon="14.9666868"><ele>225.00000000000003</ele><time>2026-04-18T10:25:23.124Z</time></trkpt><trkpt lat="41.1785196" lon="14.9667411"><ele>225.0</ele><time>2026-04-18T10:25:28.124Z</time></trkpt><trkpt lat="41.1785527" lon="14.9668186"><ele>225.00000000000003</ele><time>2026-04-18T10:25:33.091Z</time></trkpt><trkpt lat="41.1785946" lon="14.9668929"><ele>225.00000000000003</ele><time>2026-04-18T10:25:39.124Z</time></trkpt><trkpt lat="41.1786423" lon="14.9669523"><ele>225.42857142857144</ele><time>2026-04-18T10:25:44.124Z</time></trkpt><trkpt lat="41.1786778" lon="14.9670358"><ele>225.85714285714286</ele><time>2026-04-18T10:25:50.124Z</time></trkpt><trkpt lat="41.1787013" lon="14.9671223"><ele>226.28571428571428</ele><time>2026-04-18T10:25:56.123Z</time></trkpt><trkpt lat="41.1787601" lon="14.9671733"><ele>226.71428571428572</ele><time>2026-04-18T10:26:02.071Z</time></trkpt><trkpt lat="41.1788208" lon="14.9671965"><ele>227.1428571428571</ele><time>2026-04-18T10:26:07.037Z</time></trkpt><trkpt lat="41.1788918" lon="14.9672174"><ele>227.57142857142856</ele><time>2026-04-18T10:26:12.124Z</time></trkpt><trkpt lat="41.178961" lon="14.9672507"><ele>228.0</ele><time>2026-04-18T10:26:17.125Z</time></trkpt><trkpt lat="41.1790207" lon="14.9672893"><ele>225.85714285714283</ele><time>2026-04-18T10:26:22.125Z</time></trkpt><trkpt lat="41.1790921" lon="14.9672999"><ele>223.7142857142857</ele><time>2026-04-18T10:26:27.125Z</time></trkpt><trkpt lat="41.1791489" lon="14.9672518"><ele>221.57142857142856</ele><time>2026-04-18T10:26:34.125Z</time></trkpt><trkpt lat="41.1792176" lon="14.9672376"><ele>219.42857142857142</ele><time>2026-04-18T10:26:39.095Z</time></trkpt><trkpt lat="41.1792597" lon="14.9671738"><ele>217.28571428571428</ele><time>2026-04-18T10:26:44.124Z</time></trkpt><trkpt lat="41.1792829" lon="14.9670892"><ele>215.1428571428571</ele><time>2026-04-18T10:26:49.124Z</time></trkpt><trkpt lat="41.1792971" lon="14.9669921"><ele>213.0</ele><time>2026-04-18T10:26:56.124Z</time></trkpt><trkpt lat="41.1793065" lon="14.9668982"><ele>213.0</ele><time>2026-04-18T10:27:00.135Z</time></trkpt><trkpt lat="41.1793561" lon="14.966963"><ele>213.0</ele><time>2026-04-18T10:28:09.031Z</time></trkpt><trkpt lat="41.179389" lon="14.966889"><ele>213.0</ele><time>2026-04-18T10:28:18.124Z</time></trkpt></trkseg></trk></gpx>